createdAt,value
2023-02-11T00:01:32.678Z,7.05
2023-02-11T00:04:00.823Z,7.70
2023-02-11T00:06:31.955Z,7.13
2023-02-11T00:09:02.084Z,7.30
2023-02-11T00:11:30.529Z,7.60
2023-02-11T00:14:03.996Z,7.35
2023-02-11T00:16:32.275Z,6.97
2023-02-11T00:19:06.322Z,7.60
2023-02-11T00:21:40.681Z,7.63
2023-02-11T00:24:08.020Z,7.78
2023-02-11T00:26:36.334Z,7.25
2023-02-11T00:29:05.174Z,7.55
2023-02-11T00:31:33.663Z,7.28
2023-02-11T00:34:00.950Z,7.68
2023-02-11T00:36:29.624Z,7.03
2023-02-11T00:39:00.019Z,6.95
2023-02-11T00:41:31.293Z,7.65
2023-02-11T00:44:01.328Z,7.72
2023-02-11T00:46:28.747Z,8.07
2023-02-11T00:48:57.812Z,7.75
2023-02-11T00:51:26.850Z,8.45
2023-02-11T00:53:58.918Z,7.82
2023-02-11T00:56:26.389Z,7.65
2023-02-11T00:58:54.003Z,6.90
2023-02-11T01:01:23.638Z,7.78
2023-02-11T01:03:53.074Z,7.07
2023-02-11T01:06:22.975Z,7.50
2023-02-11T01:08:50.302Z,8.05
2023-02-11T01:11:22.065Z,8.10
2023-02-11T01:13:54.386Z,8.20
2023-02-11T01:16:23.181Z,7.70
2023-02-11T01:18:52.801Z,8.55
2023-02-11T01:21:20.294Z,7.90
2023-02-11T01:23:47.769Z,7.65
2023-02-11T01:26:17.860Z,7.65
2023-02-11T01:28:45.683Z,7.80
2023-02-11T01:31:13.380Z,8.30
2023-02-11T01:33:43.514Z,7.70
2023-02-11T01:36:11.655Z,7.95
2023-02-11T01:38:40.868Z,7.10
2023-02-11T01:41:12.944Z,7.47
2023-02-11T01:43:46.810Z,7.32
2023-02-11T01:46:35.957Z,8.18
2023-02-11T01:49:09.344Z,7.55
2023-02-11T01:51:48.527Z,7.60
2023-02-11T01:54:40.053Z,6.75
2023-02-11T01:57:23.481Z,7.07
2023-02-11T02:00:13.283Z,7.30
2023-02-11T02:03:02.974Z,7.93
2023-02-11T02:05:36.085Z,6.90
2023-02-11T02:08:20.329Z,7.43
2023-02-11T02:10:50.078Z,6.97
2023-02-11T02:13:17.407Z,7.78
2023-02-11T02:15:52.140Z,7.65
2023-02-11T02:18:53.732Z,7.45
2023-02-11T02:21:41.055Z,7.20
2023-02-11T02:24:32.956Z,7.30
2023-02-11T02:27:02.925Z,6.88
2023-02-11T02:29:39.034Z,7.15
2023-02-11T02:32:12.020Z,7.60
2023-02-11T02:34:48.369Z,7.38
2023-02-11T02:37:28.988Z,7.85
2023-02-11T02:39:59.825Z,6.90
2023-02-11T02:42:27.308Z,7.70
2023-02-11T02:44:56.102Z,7.78
2023-02-11T02:47:25.980Z,7.60
2023-02-11T02:49:53.135Z,7.82
2023-02-11T02:52:44.353Z,7.32
2023-02-11T02:55:14.943Z,7.70
2023-02-11T02:58:02.609Z,7.15
2023-02-11T03:00:49.376Z,7.85
2023-02-11T03:03:41.576Z,7.85
2023-02-11T03:06:17.645Z,7.63
2023-02-11T03:09:01.114Z,8.10
2023-02-11T03:13:58.449Z,7.93
2023-02-11T03:16:28.212Z,7.38
2023-02-11T03:19:03.016Z,7.35
2023-02-11T03:21:32.468Z,7.60
2023-02-11T03:24:07.602Z,8.35
2023-02-11T03:26:40.497Z,7.82
2023-02-11T03:29:16.432Z,7.05
2023-02-11T03:32:01.800Z,6.80
2023-02-11T03:34:31.864Z,6.78
2023-02-11T03:37:08.122Z,7.18
2023-02-11T03:40:00.900Z,7.50
2023-02-11T03:42:35.693Z,7.93
2023-02-11T03:45:10.683Z,7.05
2023-02-11T03:47:42.539Z,7.80
2023-02-11T03:50:12.843Z,6.82
2023-02-11T03:52:40.533Z,7.38
2023-02-11T03:55:13.348Z,8.13
2023-02-11T03:57:42.991Z,7.07
2023-02-11T04:00:12.868Z,7.55
2023-02-11T04:02:43.462Z,7.30
2023-02-11T04:05:14.525Z,7.85
2023-02-11T04:07:48.701Z,7.22
2023-02-11T04:10:16.125Z,7.25
2023-02-11T04:12:45.813Z,7.45
2023-02-11T04:15:16.751Z,6.85
2023-02-11T04:17:46.266Z,7.20
2023-02-11T04:20:13.822Z,7.03
2023-02-11T04:22:44.122Z,7.05
2023-02-11T04:25:11.662Z,6.72
2023-02-11T04:27:41.152Z,7.13
2023-02-11T04:30:09.004Z,6.90
2023-02-11T04:32:36.148Z,6.47
2023-02-11T04:35:04.048Z,6.95
2023-02-11T04:37:31.217Z,7.47
2023-02-11T04:39:58.552Z,6.70
2023-02-11T04:42:28.349Z,5.75
2023-02-11T04:44:58.039Z,6.53
2023-02-11T04:47:30.167Z,5.90
2023-02-11T04:50:04.252Z,6.35
2023-02-11T04:52:33.938Z,5.53
2023-02-11T04:55:03.475Z,5.13
2023-02-11T04:57:30.954Z,6.70
2023-02-11T05:00:00.535Z,5.55
2023-02-11T05:02:28.906Z,5.70
2023-02-11T05:05:01.946Z,4.95
2023-02-11T05:07:29.079Z,5.13
2023-02-11T05:09:56.335Z,5.88
2023-02-11T05:12:23.675Z,5.38
2023-02-11T05:14:50.943Z,4.60
2023-02-11T05:17:20.413Z,5.05
2023-02-11T05:19:47.742Z,4.80
2023-02-11T05:22:17.104Z,4.63
2023-02-11T05:24:46.575Z,5.28
2023-02-11T05:27:18.454Z,4.80
2023-02-11T05:29:48.245Z,4.95
2023-02-11T05:32:17.571Z,4.40
2023-02-11T05:34:44.967Z,4.97
2023-02-11T05:37:12.124Z,4.93
2023-02-11T05:39:41.780Z,5.45
2023-02-11T05:42:09.214Z,4.97
2023-02-11T05:44:36.549Z,5.93
2023-02-11T05:47:03.882Z,5.63
2023-02-11T05:49:33.617Z,6.90
2023-02-11T05:52:00.900Z,7.15
2023-02-11T05:54:28.002Z,6.68
2023-02-11T05:56:57.775Z,6.28
2023-02-11T05:59:27.343Z,6.53
2023-02-11T06:01:54.657Z,6.10
2023-02-11T06:04:22.113Z,6.70
2023-02-11T06:06:49.254Z,6.10
2023-02-11T06:09:18.787Z,6.03
2023-02-11T06:11:49.136Z,6.05
2023-02-11T06:14:19.668Z,5.68
2023-02-11T06:16:51.504Z,6.00
2023-02-11T06:19:20.997Z,6.15
2023-02-11T06:21:48.415Z,5.72
2023-02-11T06:24:19.300Z,6.13
2023-02-11T06:26:54.442Z,5.88
2023-02-11T06:29:21.627Z,5.60
2023-02-11T06:31:51.424Z,5.45
2023-02-11T06:34:18.811Z,5.95
2023-02-11T06:36:46.139Z,5.97
2023-02-11T06:39:16.499Z,6.13
2023-02-11T06:41:47.269Z,5.97
2023-02-11T06:44:16.625Z,5.40
2023-02-11T06:46:43.840Z,5.47
2023-02-11T06:49:11.447Z,4.93
2023-02-11T06:51:41.150Z,5.15
2023-02-11T06:54:08.416Z,5.03
2023-02-11T06:56:36.890Z,4.72
2023-02-11T06:59:04.100Z,4.63
2023-02-11T07:01:34.472Z,5.13
2023-02-11T07:04:01.921Z,5.00
2023-02-11T07:06:29.237Z,4.90
2023-02-11T07:08:58.852Z,5.00
2023-02-11T07:11:28.776Z,4.90
2023-02-11T07:14:00.809Z,5.13
2023-02-11T07:16:28.079Z,4.90
2023-02-11T07:18:55.664Z,4.78
2023-02-11T07:21:29.163Z,4.13
2023-02-11T07:23:56.349Z,4.88
2023-02-11T07:26:27.017Z,4.50
2023-02-11T07:28:55.275Z,5.10
2023-02-11T07:31:25.439Z,4.63
2023-02-11T07:33:54.376Z,4.43
2023-02-11T07:36:22.525Z,4.63
2023-02-11T07:38:50.080Z,4.60
2023-02-11T07:41:22.758Z,4.63
2023-02-11T07:43:50.551Z,4.33
2023-02-11T07:46:21.913Z,4.75
2023-02-11T07:48:49.893Z,4.03
2023-02-11T07:51:23.529Z,4.57
2023-02-11T07:53:53.703Z,4.38
2023-02-11T07:56:23.061Z,4.38
2023-02-11T07:58:51.072Z,4.30
2023-02-11T08:01:28.571Z,7.85
2023-02-11T08:03:58.376Z,8.85
2023-02-11T08:06:33.063Z,8.55
2023-02-11T08:09:05.951Z,8.88
2023-02-11T08:11:33.369Z,9.27
2023-02-11T08:14:00.627Z,9.02
2023-02-11T08:16:38.840Z,8.15
2023-02-11T08:19:12.616Z,8.10
2023-02-11T08:21:40.344Z,7.57
2023-02-11T08:24:07.916Z,7.65
2023-02-11T08:26:39.778Z,6.80
2023-02-11T08:29:10.937Z,6.72
2023-02-11T08:31:43.259Z,7.18
2023-02-11T08:34:11.868Z,6.47
2023-02-11T08:36:43.437Z,6.55
2023-02-11T08:39:20.784Z,6.97
2023-02-11T08:41:53.233Z,6.70
2023-02-11T08:44:26.237Z,6.25
2023-02-11T08:46:54.044Z,6.50
2023-02-11T08:49:23.649Z,6.55
2023-02-11T08:51:51.066Z,6.38
2023-02-11T08:54:18.483Z,6.10
2023-02-11T08:56:48.350Z,5.97
2023-02-11T08:59:20.239Z,5.53
2023-02-11T09:01:50.129Z,5.47
2023-02-11T09:04:17.954Z,5.55
2023-02-11T09:06:45.555Z,5.72
2023-02-11T09:09:16.283Z,5.43
2023-02-11T09:11:44.947Z,5.63
2023-02-11T09:14:23.613Z,5.00
2023-02-11T09:16:53.828Z,4.63
2023-02-11T09:19:23.016Z,4.65
2023-02-11T09:21:50.180Z,4.70
2023-02-11T09:24:18.432Z,4.78
2023-02-11T09:26:45.709Z,4.63
2023-02-11T09:29:17.362Z,4.50
2023-02-11T09:31:49.819Z,4.78
2023-02-11T09:34:17.397Z,4.32
2023-02-11T09:36:47.131Z,4.50
2023-02-11T09:39:18.717Z,4.85
2023-02-11T09:42:09.945Z,4.60
2023-02-11T09:44:38.654Z,4.38
2023-02-11T09:47:29.152Z,4.45
2023-02-11T09:49:59.052Z,4.32
2023-02-11T09:52:54.220Z,4.28
2023-02-11T09:55:44.872Z,4.25
2023-02-11T09:58:16.087Z,3.97
2023-02-11T10:00:44.942Z,4.50
2023-02-11T10:03:49.562Z,4.38
2023-02-11T10:06:29.421Z,3.88
2023-02-11T10:08:59.501Z,3.75
2023-02-11T10:11:47.929Z,3.90
2023-02-11T10:14:36.726Z,4.60
2023-02-11T10:17:22.473Z,3.95
2023-02-11T10:20:11.092Z,4.38
2023-02-11T10:22:45.666Z,4.13
2023-02-11T10:25:24.561Z,3.75
2023-02-11T10:27:54.853Z,3.75
2023-02-11T10:30:37.859Z,3.72
2023-02-11T10:33:10.988Z,4.35
2023-02-11T10:35:38.643Z,3.78
2023-02-11T10:38:08.422Z,3.42
2023-02-11T10:40:35.581Z,3.97
2023-02-11T10:43:10.941Z,3.30
2023-02-11T10:45:52.862Z,3.22
2023-02-11T10:48:41.535Z,3.88
2023-02-11T10:51:34.871Z,3.50
2023-02-11T10:54:05.402Z,3.40
2023-02-11T10:56:36.475Z,3.60
2023-02-11T10:59:15.703Z,3.60
2023-02-11T11:02:18.788Z,3.67
2023-02-11T11:04:47.588Z,3.70
2023-02-11T11:07:21.445Z,3.80
2023-02-11T11:10:04.385Z,3.80
2023-02-11T11:12:49.007Z,3.40
2023-02-11T11:15:22.722Z,3.42
2023-02-11T11:18:20.558Z,3.78
2023-02-11T11:20:59.173Z,3.10
2023-02-11T11:23:30.549Z,3.80
2023-02-11T11:26:09.246Z,3.40
2023-02-11T11:28:41.075Z,3.67
2023-02-11T11:31:19.297Z,3.08
2023-02-11T11:33:48.309Z,3.05
2023-02-11T11:36:34.942Z,3.22
2023-02-11T11:39:20.456Z,3.30
2023-02-11T11:42:01.401Z,3.50
2023-02-11T11:44:39.572Z,3.30
2023-02-11T11:47:13.300Z,3.50
2023-02-11T11:50:11.619Z,2.92
2023-02-11T11:52:51.296Z,3.30
2023-02-11T11:55:24.916Z,3.03
2023-02-11T11:57:52.757Z,2.72
2023-02-11T12:00:27.810Z,3.50
2023-02-11T12:03:16.054Z,2.97
2023-02-11T12:05:53.190Z,3.25
2023-02-11T12:08:41.533Z,3.45
2023-02-11T12:11:38.306Z,3.45
2023-02-11T12:14:28.354Z,3.45
2023-02-11T12:17:08.049Z,3.97
2023-02-11T12:19:52.908Z,4.18
2023-02-11T12:22:23.355Z,4.43
2023-02-11T12:25:30.814Z,4.57
2023-02-11T12:28:35.967Z,5.32
2023-02-11T12:31:03.638Z,5.72
2023-02-11T12:33:49.259Z,6.35
2023-02-11T12:36:45.204Z,6.30
2023-02-11T12:39:35.396Z,7.18
2023-02-11T12:42:57.041Z,8.05
2023-02-11T12:45:47.860Z,8.70
2023-02-11T12:48:36.701Z,8.27
2023-02-11T12:51:20.031Z,10.13
2023-02-11T12:53:59.920Z,10.52
2023-02-11T12:56:37.993Z,12.10
2023-02-11T12:59:14.499Z,12.02
2023-02-11T13:01:44.892Z,11.48
2023-02-11T13:04:24.893Z,11.07
2023-02-11T13:06:58.962Z,13.15
2023-02-11T13:09:33.159Z,14.93
2023-02-11T13:12:24.224Z,15.40
2023-02-11T13:14:56.809Z,18.10
2023-02-11T13:17:45.139Z,16.50
2023-02-11T13:20:24.172Z,18.48
2023-02-11T13:23:21.904Z,19.63
2023-02-11T13:25:55.151Z,18.67
2023-02-11T13:28:28.301Z,18.85
2023-02-11T13:31:03.018Z,19.45
2023-02-11T13:33:39.702Z,19.73
2023-02-11T13:36:07.061Z,20.58
2023-02-11T13:38:39.167Z,18.88
2023-02-11T13:41:29.753Z,21.33
2023-02-11T13:44:25.829Z,19.58
2023-02-11T13:46:59.667Z,21.52
2023-02-11T13:49:51.643Z,20.52
2023-02-11T13:52:32.608Z,21.58
2023-02-11T13:55:14.567Z,20.50
2023-02-11T13:57:46.719Z,19.58
2023-02-11T14:00:36.929Z,20.27
2023-02-11T14:03:51.868Z,22.60
2023-02-11T14:06:41.848Z,22.73
2023-02-11T14:09:09.334Z,22.63
2023-02-11T14:11:56.196Z,24.23
2023-02-11T14:14:33.518Z,24.80
2023-02-11T14:17:06.821Z,27.60
2023-02-11T14:19:46.178Z,25.45
2023-02-11T14:22:27.628Z,24.35
2023-02-11T14:25:04.262Z,25.98
2023-02-11T14:28:00.304Z,25.80
2023-02-11T14:30:39.287Z,21.00
2023-02-11T14:33:06.546Z,21.63
2023-02-11T14:35:47.342Z,20.38
2023-02-11T14:38:34.251Z,20.45
2023-02-11T14:41:13.865Z,20.02
2023-02-11T14:43:47.919Z,19.30
2023-02-11T14:46:20.169Z,18.67
2023-02-11T14:48:50.354Z,18.57
2023-02-11T14:51:28.074Z,17.20
2023-02-11T14:54:15.279Z,17.35
2023-02-11T14:56:42.819Z,15.88
2023-02-11T14:59:20.950Z,16.45
2023-02-11T15:01:56.517Z,16.08
2023-02-11T15:04:28.975Z,17.02
2023-02-11T15:07:03.316Z,15.18
2023-02-11T15:09:39.509Z,16.45
2023-02-11T15:12:17.335Z,14.73
2023-02-11T15:14:54.036Z,14.30
2023-02-11T15:17:26.368Z,14.18
2023-02-11T15:19:57.106Z,13.63
2023-02-11T15:22:28.457Z,14.15
2023-02-11T15:25:14.712Z,14.35
2023-02-11T15:27:44.627Z,13.70
2023-02-11T15:30:26.085Z,12.32
2023-02-11T15:32:59.848Z,13.27
2023-02-11T15:35:28.571Z,12.52
2023-02-11T15:37:57.542Z,13.95
2023-02-11T15:40:28.852Z,13.20
2023-02-11T15:43:05.901Z,13.20
2023-02-11T15:46:05.541Z,12.93
2023-02-11T15:48:37.244Z,12.32
2023-02-11T15:51:23.163Z,13.20
2023-02-11T15:53:56.930Z,12.25
2023-02-11T15:56:33.225Z,12.98
2023-02-11T15:59:18.260Z,12.35
2023-02-11T16:01:46.749Z,12.23
2023-02-11T16:04:22.272Z,11.45
2023-02-11T16:06:50.922Z,12.00
2023-02-11T16:09:33.994Z,12.02
2023-02-11T16:12:04.760Z,12.52
2023-02-11T16:14:39.124Z,11.13
2023-02-11T16:17:06.325Z,10.48
2023-02-11T16:19:34.766Z,11.43
2023-02-11T16:22:09.147Z,11.30
2023-02-11T16:24:38.709Z,11.90
2023-02-11T16:27:28.781Z,11.30
2023-02-11T16:30:00.328Z,11.32
2023-02-11T16:32:29.563Z,11.00
2023-02-11T16:35:01.343Z,10.55
2023-02-11T16:37:28.922Z,10.40
2023-02-11T16:40:01.317Z,10.95
2023-02-11T16:42:28.504Z,10.07
2023-02-11T16:44:56.038Z,10.48
2023-02-11T16:47:28.246Z,11.20
2023-02-11T16:49:56.715Z,11.13
2023-02-11T16:52:24.487Z,11.95
2023-02-11T16:54:54.388Z,10.90
2023-02-11T16:57:28.174Z,10.27
2023-02-11T16:59:59.591Z,10.10
2023-02-11T17:02:36.087Z,10.23
2023-02-11T17:05:06.283Z,9.63
2023-02-11T17:07:35.968Z,9.20
2023-02-11T17:10:03.657Z,10.43
2023-02-11T17:12:30.829Z,10.05
2023-02-11T17:14:58.312Z,8.40
2023-02-11T17:17:42.638Z,8.85
2023-02-11T17:20:18.220Z,8.25
2023-02-11T17:22:45.515Z,8.15
2023-02-11T17:25:13.770Z,9.05
2023-02-11T17:27:42.049Z,8.18
2023-02-11T17:30:10.640Z,8.23
2023-02-11T17:32:40.214Z,8.27
2023-02-11T17:35:12.664Z,7.72
2023-02-11T17:37:40.648Z,8.60
2023-02-11T17:40:08.668Z,7.25
2023-02-11T17:42:35.915Z,8.27
2023-02-11T17:45:04.035Z,7.80
2023-02-11T17:47:31.125Z,8.88
2023-02-11T17:50:01.311Z,9.23
2023-02-11T17:52:29.337Z,9.10
2023-02-11T17:54:57.933Z,8.80
2023-02-11T17:57:25.324Z,9.10
2023-02-11T17:59:52.647Z,8.82
2023-02-11T18:02:20.607Z,9.48
2023-02-11T18:04:50.581Z,9.02
2023-02-11T18:07:19.747Z,9.05
2023-02-11T18:09:46.977Z,8.93
2023-02-11T18:12:14.434Z,8.98
2023-02-11T18:14:41.749Z,8.10
2023-02-11T18:17:09.177Z,10.40
2023-02-11T18:19:38.463Z,9.10
2023-02-11T18:22:05.777Z,9.05
2023-02-11T18:24:35.633Z,8.90
2023-02-11T18:27:05.380Z,8.77
2023-02-11T18:29:35.626Z,8.98
2023-02-11T18:32:03.020Z,8.18
2023-02-11T18:34:30.227Z,8.63
2023-02-11T18:36:57.536Z,8.95
2023-02-11T18:39:26.349Z,9.27
2023-02-11T18:41:58.852Z,8.13
2023-02-11T18:44:27.216Z,8.98
2023-02-11T18:46:56.919Z,9.43
2023-02-11T18:49:24.339Z,8.13
2023-02-11T18:51:51.608Z,8.05
2023-02-11T18:54:19.165Z,8.23
2023-02-11T18:56:46.406Z,8.35
2023-02-11T18:59:13.697Z,8.93
2023-02-11T19:01:46.864Z,9.05
2023-02-11T19:04:19.901Z,9.82
2023-02-11T19:06:49.457Z,10.03
2023-02-11T19:09:18.887Z,9.55
2023-02-11T19:11:47.052Z,9.88
2023-02-11T19:14:18.675Z,8.75
2023-02-11T19:16:48.015Z,9.30
2023-02-11T19:19:15.532Z,9.73
2023-02-11T19:21:44.604Z,8.15
2023-02-11T19:24:15.459Z,8.77
2023-02-11T19:26:42.828Z,8.82
2023-02-11T19:29:10.492Z,8.45
2023-02-11T19:31:37.971Z,8.73
2023-02-11T19:34:05.962Z,8.20
2023-02-11T19:36:36.853Z,7.75
2023-02-11T19:39:06.583Z,8.57
2023-02-11T19:41:34.509Z,8.40
2023-02-11T19:44:03.683Z,7.93
2023-02-11T19:46:36.190Z,8.13
2023-02-11T19:49:05.150Z,8.45
2023-02-11T19:51:39.179Z,8.45
2023-02-11T19:54:07.312Z,8.45
2023-02-11T19:56:35.208Z,7.85
2023-02-11T19:59:03.138Z,7.75
2023-02-11T20:01:30.695Z,7.35
2023-02-11T20:03:57.927Z,8.05
2023-02-11T20:06:30.108Z,8.10
2023-02-11T20:09:02.782Z,8.77
2023-02-11T20:11:33.251Z,8.18
2023-02-11T20:14:05.008Z,8.20
2023-02-11T20:16:46.964Z,7.75
2023-02-11T20:19:21.321Z,7.78
2023-02-11T20:21:53.844Z,7.78
2023-02-11T20:24:21.625Z,8.07
2023-02-11T20:26:49.509Z,7.88
2023-02-11T20:29:17.988Z,8.05
2023-02-11T20:31:45.849Z,7.43
2023-02-11T20:34:13.168Z,7.70
2023-02-11T20:36:43.380Z,6.82
2023-02-11T20:39:17.208Z,7.82
2023-02-11T20:41:47.676Z,8.18
2023-02-11T20:44:15.423Z,7.55
2023-02-11T20:46:48.900Z,7.50
2023-02-11T20:49:22.329Z,7.75
2023-02-11T20:51:49.893Z,7.82
2023-02-11T20:54:19.419Z,8.40
2023-02-11T20:56:56.729Z,6.93
2023-02-11T20:59:28.456Z,7.05
2023-02-11T21:01:56.840Z,7.72
2023-02-11T21:04:31.129Z,7.75
2023-02-11T21:07:01.172Z,8.27
2023-02-11T21:09:34.148Z,7.53
2023-02-11T21:12:02.158Z,7.50
2023-02-11T21:14:32.040Z,8.02
2023-02-11T21:17:01.556Z,7.32
2023-02-11T21:19:29.030Z,7.32
2023-02-11T21:21:57.336Z,7.95
2023-02-11T21:24:24.880Z,7.18
2023-02-11T21:26:52.016Z,7.25
2023-02-11T21:29:21.591Z,7.13
2023-02-11T21:31:49.680Z,7.60
2023-02-11T21:34:23.751Z,7.45
2023-02-11T21:36:52.157Z,7.30
2023-02-11T21:39:21.962Z,7.95
2023-02-11T21:41:49.174Z,7.53
2023-02-11T21:44:16.310Z,8.10
2023-02-11T21:46:43.788Z,7.35
2023-02-11T21:49:11.255Z,7.18
2023-02-11T21:51:39.547Z,7.75
2023-02-11T21:54:06.886Z,7.88
2023-02-11T21:56:35.318Z,7.60
2023-02-11T21:59:03.344Z,7.63
2023-02-11T22:01:33.076Z,7.57
2023-02-11T22:04:00.445Z,7.78
2023-02-11T22:06:33.356Z,7.55
2023-02-11T22:09:08.818Z,7.53
2023-02-11T22:11:38.237Z,7.80
2023-02-11T22:14:08.042Z,7.32
2023-02-11T22:16:38.059Z,7.60
2023-02-11T22:19:07.717Z,7.88
2023-02-11T22:21:37.162Z,7.65
2023-02-11T22:24:04.923Z,7.85
2023-02-11T22:26:34.349Z,7.18
2023-02-11T22:29:01.702Z,7.85
2023-02-11T22:31:32.400Z,8.02
2023-02-11T22:34:03.094Z,8.32
2023-02-11T22:36:35.286Z,7.65
2023-02-11T22:39:05.490Z,7.53
2023-02-11T22:41:33.434Z,7.25
2023-02-11T22:44:02.597Z,7.97
2023-02-11T22:46:32.575Z,7.70
2023-02-11T22:49:02.822Z,7.00
2023-02-11T22:51:32.907Z,7.45
2023-02-11T22:54:03.180Z,7.88
2023-02-11T22:56:32.229Z,7.47
2023-02-11T22:59:06.808Z,7.68
2023-02-11T23:01:37.535Z,7.43
2023-02-11T23:04:06.888Z,6.80
2023-02-11T23:06:37.130Z,8.00
2023-02-11T23:09:06.690Z,7.70
2023-02-11T23:11:36.392Z,8.07
2023-02-11T23:14:04.068Z,7.50
2023-02-11T23:16:34.236Z,7.20
2023-02-11T23:19:04.438Z,7.50
2023-02-11T23:21:38.808Z,7.10
2023-02-11T23:24:11.208Z,7.90
2023-02-11T23:26:39.364Z,7.85
2023-02-11T23:29:07.371Z,7.45
2023-02-11T23:31:40.406Z,7.95
2023-02-11T23:34:08.997Z,7.65
2023-02-11T23:36:38.622Z,6.80
2023-02-11T23:39:07.011Z,7.03
2023-02-11T23:41:35.255Z,7.25
2023-02-11T23:44:02.457Z,7.28
2023-02-11T23:46:32.132Z,6.70
2023-02-11T23:48:59.436Z,7.30
2023-02-11T23:51:26.946Z,7.35
2023-02-11T23:53:58.863Z,6.85
2023-02-11T23:56:30.591Z,7.57
2023-02-11T23:58:59.289Z,6.88
